createdAt,value
2019-04-25T00:00:01.834Z,20.70
2019-04-25T00:01:16.298Z,20.70
2019-04-25T00:02:25.758Z,20.70
2019-04-25T00:03:31.947Z,20.60
2019-04-25T00:04:35.273Z,20.60
2019-04-25T00:05:38.752Z,20.60
2019-04-25T00:06:42.886Z,20.60
2019-04-25T00:07:47.108Z,20.60
2019-04-25T00:08:49.817Z,20.50
2019-04-25T00:09:54.205Z,20.50
2019-04-25T00:10:57.332Z,20.50
2019-04-25T00:12:00.041Z,20.50
2019-04-25T00:13:03.580Z,20.50
2019-04-25T00:14:07.007Z,20.50
2019-04-25T00:15:11.159Z,20.50
2019-04-25T00:16:15.005Z,20.50
2019-04-25T00:17:18.128Z,20.50
2019-04-25T00:18:22.092Z,20.50
2019-04-25T00:19:25.718Z,20.50
2019-04-25T00:20:31.183Z,20.50
2019-04-25T00:21:43.351Z,20.50
2019-04-25T00:23:03.958Z,20.50
2019-04-25T00:24:14.063Z,20.50
2019-04-25T00:25:42.264Z,20.50
2019-04-25T00:26:46.961Z,20.40
2019-04-25T00:27:49.692Z,20.40
2019-04-25T00:28:52.657Z,20.40
2019-04-25T00:29:56.676Z,20.40
2019-04-25T00:30:59.790Z,20.40
2019-04-25T00:32:02.488Z,20.40
2019-04-25T00:33:05.213Z,20.40
2019-04-25T00:34:08.577Z,20.40
2019-04-25T00:35:11.815Z,20.50
2019-04-25T00:36:14.805Z,20.50
2019-04-25T00:37:17.519Z,20.50
2019-04-25T00:38:20.265Z,20.50
2019-04-25T00:39:23.749Z,20.50
2019-04-25T00:40:26.457Z,20.50
2019-04-25T00:41:29.133Z,20.50
2019-04-25T00:42:32.100Z,20.40
2019-04-25T00:43:34.847Z,20.40
2019-04-25T00:44:37.506Z,20.40
2019-04-25T00:45:42.419Z,20.40
2019-04-25T00:46:47.826Z,20.40
2019-04-25T00:47:50.149Z,20.40
2019-04-25T00:48:53.845Z,20.40
2019-04-25T00:49:56.542Z,20.40
2019-04-25T00:50:59.390Z,20.40
2019-04-25T00:52:02.156Z,20.30
2019-04-25T00:53:04.792Z,20.30
2019-04-25T00:54:08.024Z,20.20
2019-04-25T00:55:11.634Z,20.20
2019-04-25T00:56:15.530Z,20.10
2019-04-25T00:57:18.229Z,20.20
2019-04-25T00:58:31.611Z,20.10
2019-04-25T00:59:44.063Z,20.10
2019-04-25T01:01:05.955Z,20.10
2019-04-25T01:02:23.492Z,20.10
2019-04-25T01:03:27.765Z,20.00
2019-04-25T01:04:33.566Z,20.00
2019-04-25T01:05:36.410Z,20.00
2019-04-25T01:06:39.092Z,20.00
2019-04-25T01:07:42.223Z,20.10
2019-04-25T01:08:45.799Z,20.10
2019-04-25T01:09:48.545Z,20.10
2019-04-25T01:10:52.269Z,20.10
2019-04-25T01:11:56.044Z,20.00
2019-04-25T01:13:01.096Z,20.00
2019-04-25T01:14:04.497Z,20.10
2019-04-25T01:15:08.785Z,20.10
2019-04-25T01:16:12.063Z,20.10
2019-04-25T01:17:15.055Z,20.10
2019-04-25T01:18:17.736Z,20.10
2019-04-25T01:19:20.514Z,20.10
2019-04-25T01:20:23.994Z,20.10
2019-04-25T01:21:29.454Z,20.00
2019-04-25T01:22:32.307Z,20.00
2019-04-25T01:23:35.076Z,20.00
2019-04-25T01:24:37.847Z,20.00
2019-04-25T01:25:42.673Z,20.00
2019-04-25T01:26:45.862Z,20.00
2019-04-25T01:27:48.733Z,20.00
2019-04-25T01:28:51.912Z,20.00
2019-04-25T01:29:55.529Z,20.00
2019-04-25T01:30:59.469Z,19.90
2019-04-25T01:32:03.260Z,19.90
2019-04-25T01:33:06.429Z,19.90
2019-04-25T01:34:10.996Z,19.90
2019-04-25T01:35:35.985Z,19.90
2019-04-25T01:36:58.809Z,19.90
2019-04-25T01:38:21.365Z,19.80
2019-04-25T01:39:42.109Z,19.70
2019-04-25T01:41:00.066Z,19.70
2019-04-25T01:42:25.495Z,19.70
2019-04-25T01:43:52.753Z,19.60
2019-04-25T01:44:56.897Z,19.60
2019-04-25T01:45:59.865Z,19.60
2019-04-25T01:47:04.200Z,19.70
2019-04-25T01:48:07.185Z,19.70
2019-04-25T01:49:09.845Z,19.60
2019-04-25T01:50:13.750Z,19.60
2019-04-25T01:51:16.382Z,19.60
2019-04-25T01:52:19.105Z,19.60
2019-04-25T01:53:21.793Z,19.60
2019-04-25T01:54:24.894Z,19.60
2019-04-25T01:55:27.590Z,19.60
2019-04-25T01:56:30.584Z,19.60
2019-04-25T01:57:33.756Z,19.50
2019-04-25T01:58:40.257Z,19.50
2019-04-25T01:59:43.832Z,19.50
2019-04-25T02:00:47.614Z,19.50
2019-04-25T02:01:51.007Z,19.50
2019-04-25T02:02:54.892Z,19.50
2019-04-25T02:03:59.053Z,19.40
2019-04-25T02:05:01.753Z,19.40
2019-04-25T02:06:05.105Z,19.40
2019-04-25T02:07:08.316Z,19.40
2019-04-25T02:08:10.957Z,19.40
2019-04-25T02:09:14.154Z,19.40
2019-04-25T02:10:17.089Z,19.40
2019-04-25T02:11:51.044Z,19.40
2019-04-25T02:12:57.664Z,19.40
2019-04-25T02:14:00.381Z,19.30
2019-04-25T02:15:05.928Z,19.30
2019-04-25T02:16:07.949Z,19.30
2019-04-25T02:17:10.786Z,19.30
2019-04-25T02:18:13.689Z,19.40
2019-04-25T02:19:16.713Z,19.40
2019-04-25T02:20:19.501Z,19.40
2019-04-25T02:21:23.555Z,19.40
2019-04-25T02:22:26.980Z,19.40
2019-04-25T02:23:30.101Z,19.40
2019-04-25T02:24:33.860Z,19.40
2019-04-25T02:25:36.899Z,19.50
2019-04-25T02:26:40.022Z,19.50
2019-04-25T02:27:44.174Z,19.40
2019-04-25T02:28:46.996Z,19.40
2019-04-25T02:29:49.805Z,19.40
2019-04-25T02:30:53.642Z,19.40
2019-04-25T02:32:00.220Z,19.40
2019-04-25T02:33:06.223Z,19.40
2019-04-25T02:34:08.655Z,19.40
2019-04-25T02:35:11.409Z,19.40
2019-04-25T02:36:15.099Z,19.40
2019-04-25T02:37:18.029Z,19.40
2019-04-25T02:38:21.117Z,19.40
2019-04-25T02:39:28.642Z,19.30
2019-04-25T02:40:31.329Z,19.30
2019-04-25T02:41:34.393Z,19.30
2019-04-25T02:42:37.142Z,19.30
2019-04-25T02:43:39.777Z,19.20
2019-04-25T02:44:47.053Z,19.20
2019-04-25T02:46:09.676Z,19.10
2019-04-25T02:47:38.766Z,19.10
2019-04-25T02:49:01.390Z,19.10
2019-04-25T02:50:20.073Z,19.10
2019-04-25T02:51:30.127Z,19.00
2019-04-25T02:52:38.122Z,19.00
2019-04-25T02:53:44.696Z,19.00
2019-04-25T02:54:47.556Z,19.00
2019-04-25T02:55:50.208Z,19.00
2019-04-25T02:56:54.744Z,19.10
2019-04-25T02:57:58.393Z,19.10
2019-04-25T02:59:02.740Z,19.10
2019-04-25T03:00:08.352Z,19.10
2019-04-25T03:01:21.364Z,19.10
2019-04-25T03:02:17.703Z,19.10
2019-04-25T03:03:20.405Z,19.10
2019-04-25T03:04:24.158Z,19.10
2019-04-25T03:05:26.993Z,19.10
2019-04-25T03:06:29.807Z,19.10
2019-04-25T03:07:34.659Z,19.10
2019-04-25T03:08:37.561Z,19.10
2019-04-25T03:09:40.403Z,19.20
2019-04-25T03:10:44.310Z,19.20
2019-04-25T03:11:47.742Z,19.20
2019-04-25T03:12:50.585Z,19.20
2019-04-25T03:13:54.627Z,19.10
2019-04-25T03:15:00.146Z,19.10
2019-04-25T03:16:06.146Z,19.10
2019-04-25T03:17:09.726Z,19.00
2019-04-25T03:18:15.233Z,19.00
2019-04-25T03:19:46.451Z,18.90
2019-04-25T03:21:01.258Z,18.90
2019-04-25T03:22:08.364Z,18.90
2019-04-25T03:23:28.649Z,18.90
2019-04-25T03:24:31.431Z,18.90
2019-04-25T03:25:34.121Z,18.90
2019-04-25T03:26:40.269Z,18.90
2019-04-25T03:27:41.590Z,18.90
2019-04-25T03:28:44.313Z,18.90
2019-04-25T03:29:47.009Z,18.90
2019-04-25T03:30:49.799Z,18.80
2019-04-25T03:31:55.607Z,18.80
2019-04-25T03:32:57.326Z,18.80
2019-04-25T03:34:02.228Z,18.80
2019-04-25T03:35:05.826Z,18.80
2019-04-25T03:36:09.316Z,18.70
2019-04-25T03:37:13.641Z,18.70
2019-04-25T03:38:16.546Z,18.70
2019-04-25T03:39:19.276Z,18.70
2019-04-25T03:40:23.153Z,18.70
2019-04-25T03:41:26.281Z,18.70
2019-04-25T03:42:28.986Z,18.70
2019-04-25T03:43:33.137Z,18.70
2019-04-25T03:44:36.631Z,18.70
2019-04-25T03:45:39.592Z,18.70
2019-04-25T03:46:43.812Z,18.70
2019-04-25T03:47:46.601Z,18.70
2019-04-25T03:48:49.864Z,18.70
2019-04-25T03:49:55.174Z,18.70
2019-04-25T03:50:57.245Z,18.80
2019-04-25T03:52:00.022Z,18.80
2019-04-25T03:53:04.527Z,18.80
2019-04-25T03:54:08.393Z,18.80
2019-04-25T03:55:12.367Z,18.80
2019-04-25T03:56:15.178Z,18.80
2019-04-25T03:57:17.902Z,18.80
2019-04-25T03:58:20.681Z,18.80
2019-04-25T03:59:23.635Z,18.80
2019-04-25T04:00:26.521Z,18.80
2019-04-25T04:01:29.206Z,18.80
2019-04-25T04:02:31.888Z,18.70
2019-04-25T04:03:35.037Z,18.70
2019-04-25T04:04:37.714Z,18.70
2019-04-25T04:05:40.470Z,18.70
2019-04-25T04:06:44.066Z,18.70
2019-04-25T04:07:46.885Z,18.70
2019-04-25T04:08:49.789Z,18.70
2019-04-25T04:09:53.304Z,18.60
2019-04-25T04:10:56.952Z,18.60
2019-04-25T04:11:59.621Z,18.50
2019-04-25T04:13:02.325Z,18.50
2019-04-25T04:14:06.214Z,18.50
2019-04-25T04:15:10.417Z,18.40
2019-04-25T04:16:15.756Z,18.40
2019-04-25T04:17:36.113Z,18.40
2019-04-25T04:18:44.219Z,18.40
2019-04-25T04:20:09.150Z,18.30
2019-04-25T04:21:43.333Z,18.30
2019-04-25T04:22:53.333Z,18.30
2019-04-25T04:24:16.055Z,18.30
2019-04-25T04:25:19.357Z,18.30
2019-04-25T04:26:23.201Z,18.30
2019-04-25T04:27:26.109Z,18.30
2019-04-25T04:28:28.817Z,18.30
2019-04-25T04:29:33.081Z,18.30
2019-04-25T04:30:35.884Z,18.30
2019-04-25T04:31:38.710Z,18.40
2019-04-25T04:32:41.437Z,18.40
2019-04-25T04:33:44.089Z,18.40
2019-04-25T04:34:46.851Z,18.40
2019-04-25T04:35:49.538Z,18.40
2019-04-25T04:36:53.343Z,18.40
2019-04-25T04:37:56.333Z,18.40
2019-04-25T04:38:59.076Z,18.40
2019-04-25T04:40:03.388Z,18.40
2019-04-25T04:41:06.213Z,18.40
2019-04-25T04:42:09.610Z,18.50
2019-04-25T04:43:12.296Z,18.50
2019-04-25T04:44:15.636Z,18.50
2019-04-25T04:45:19.217Z,18.60
2019-04-25T04:46:21.942Z,18.50
2019-04-25T04:47:24.715Z,18.60
2019-04-25T04:48:27.382Z,18.60
2019-04-25T04:49:30.393Z,18.60
2019-04-25T04:50:33.668Z,18.70
2019-04-25T04:51:36.702Z,18.70
2019-04-25T04:52:39.381Z,18.70
2019-04-25T04:53:43.803Z,18.70
2019-04-25T04:54:47.443Z,18.70
2019-04-25T04:55:50.229Z,18.80
2019-04-25T04:56:53.724Z,18.70
2019-04-25T04:57:56.741Z,18.70
2019-04-25T04:58:59.449Z,18.60
2019-04-25T05:00:03.610Z,18.60
2019-04-25T05:01:07.632Z,18.60
2019-04-25T05:02:29.811Z,18.60
2019-04-25T05:03:44.569Z,18.60
2019-04-25T05:05:06.715Z,18.60
2019-04-25T05:06:26.534Z,18.60
2019-04-25T05:07:47.821Z,18.60
2019-04-25T05:09:03.312Z,18.60
2019-04-25T05:10:06.137Z,18.60
2019-04-25T05:11:08.873Z,18.60
2019-04-25T05:12:11.612Z,18.60
2019-04-25T05:13:15.770Z,18.60
2019-04-25T05:14:19.524Z,18.60
2019-04-25T05:15:24.558Z,18.60
2019-04-25T05:16:29.338Z,18.60
2019-04-25T05:17:32.089Z,18.60
2019-04-25T05:18:39.536Z,18.60
2019-04-25T05:19:39.269Z,18.70
2019-04-25T05:20:41.932Z,18.60
2019-04-25T05:21:45.654Z,18.60
2019-04-25T05:22:48.388Z,18.60
2019-04-25T05:23:51.104Z,18.60
2019-04-25T05:24:53.873Z,18.60
2019-04-25T05:25:56.693Z,18.60
2019-04-25T05:26:59.357Z,18.60
2019-04-25T05:28:05.401Z,18.50
2019-04-25T05:29:08.226Z,18.50
2019-04-25T05:30:15.700Z,18.50
2019-04-25T05:31:37.129Z,18.50
2019-04-25T05:32:39.808Z,18.40
2019-04-25T05:33:43.611Z,18.40
2019-04-25T05:34:49.211Z,18.40
2019-04-25T05:35:50.870Z,18.40
2019-04-25T05:36:53.918Z,18.40
2019-04-25T05:37:56.689Z,18.40
2019-04-25T05:38:59.459Z,18.40
2019-04-25T05:40:03.413Z,18.40
2019-04-25T05:41:15.759Z,18.40
2019-04-25T05:42:30.561Z,18.40
2019-04-25T05:43:33.581Z,18.40
2019-04-25T05:44:36.280Z,18.40
2019-04-25T05:45:39.134Z,18.50
2019-04-25T05:46:42.148Z,18.50
2019-04-25T05:47:45.330Z,18.50
2019-04-25T05:48:48.017Z,18.50
2019-04-25T05:49:50.737Z,18.50
2019-04-25T05:50:53.814Z,18.50
2019-04-25T05:51:56.561Z,18.50
2019-04-25T05:52:59.325Z,18.50
2019-04-25T05:54:04.049Z,18.50
2019-04-25T05:55:06.976Z,18.50
2019-04-25T05:56:10.049Z,18.60
2019-04-25T05:57:13.775Z,18.60
2019-04-25T05:58:16.921Z,18.60
2019-04-25T05:59:19.840Z,18.60
2019-04-25T06:00:24.600Z,18.60
2019-04-25T06:01:29.256Z,18.60
2019-04-25T06:02:31.670Z,18.60
2019-04-25T06:03:34.347Z,18.60
2019-04-25T06:04:37.575Z,18.60
2019-04-25T06:05:40.340Z,18.60
2019-04-25T06:06:44.608Z,18.60
2019-04-25T06:07:47.486Z,18.60
2019-04-25T06:09:00.140Z,18.60
2019-04-25T06:10:34.564Z,18.60
2019-04-25T06:11:44.269Z,18.60
2019-04-25T06:12:54.676Z,18.60
2019-04-25T06:14:01.165Z,18.60
2019-04-25T06:15:05.562Z,18.70
2019-04-25T06:16:13.391Z,18.70
2019-04-25T06:17:21.462Z,18.60
2019-04-25T06:18:33.879Z,18.60
2019-04-25T06:19:43.633Z,18.70
2019-04-25T06:20:46.361Z,18.70
2019-04-25T06:21:49.602Z,18.70
2019-04-25T06:23:00.196Z,18.70
2019-04-25T06:24:25.974Z,18.60
2019-04-25T06:25:34.634Z,18.70
2019-04-25T06:26:40.337Z,18.60
2019-04-25T06:27:56.465Z,18.70
2019-04-25T06:28:57.000Z,18.70
2019-04-25T06:30:04.431Z,18.70
2019-04-25T06:31:10.289Z,18.80
2019-04-25T06:32:14.246Z,18.80
2019-04-25T06:33:17.115Z,18.90
2019-04-25T06:34:19.985Z,18.90
2019-04-25T06:35:24.798Z,18.90
2019-04-25T06:36:27.209Z,18.90
2019-04-25T06:37:30.265Z,18.90
2019-04-25T06:38:33.503Z,19.00
2019-04-25T06:39:36.243Z,19.10
2019-04-25T06:40:39.113Z,19.10
2019-04-25T06:41:44.876Z,19.20
2019-04-25T06:42:48.359Z,19.20
2019-04-25T06:43:54.161Z,19.20
2019-04-25T06:45:03.590Z,19.30
2019-04-25T06:46:24.858Z,19.30
2019-04-25T06:47:44.361Z,19.40
2019-04-25T06:48:57.116Z,19.40
2019-04-25T06:49:59.765Z,19.40
2019-04-25T06:51:03.506Z,19.40
2019-04-25T06:52:06.394Z,19.50
2019-04-25T06:53:09.451Z,19.50
2019-04-25T06:54:13.468Z,19.50
2019-04-25T06:55:16.769Z,19.50
2019-04-25T06:56:19.409Z,19.60
2019-04-25T06:57:24.165Z,19.60
2019-04-25T06:58:27.558Z,19.60
2019-04-25T06:59:32.122Z,19.60
2019-04-25T07:00:41.218Z,19.60
2019-04-25T07:01:40.265Z,19.60
2019-04-25T07:02:43.555Z,19.60
2019-04-25T07:03:46.808Z,19.60
2019-04-25T07:04:51.530Z,19.60
2019-04-25T07:05:54.255Z,19.60
2019-04-25T07:07:09.381Z,19.70
2019-04-25T07:08:03.192Z,19.70
2019-04-25T07:09:08.085Z,19.70
2019-04-25T07:10:10.901Z,19.70
2019-04-25T07:11:14.065Z,19.80
2019-04-25T07:12:18.444Z,19.80
2019-04-25T07:13:21.301Z,19.80
2019-04-25T07:14:25.829Z,19.90
2019-04-25T07:15:29.539Z,19.90
2019-04-25T07:16:33.776Z,19.90
2019-04-25T07:17:37.088Z,19.90
2019-04-25T07:18:43.617Z,19.90
2019-04-25T07:19:46.653Z,20.00
2019-04-25T07:20:49.385Z,20.00
2019-04-25T07:21:52.165Z,20.10
2019-04-25T07:22:54.994Z,20.10
2019-04-25T07:23:57.880Z,20.10
2019-04-25T07:25:01.186Z,20.10
2019-04-25T07:26:26.920Z,20.10
2019-04-25T07:27:47.290Z,20.10
2019-04-25T07:28:59.465Z,20.10
2019-04-25T07:30:27.374Z,20.20
2019-04-25T07:31:34.780Z,20.20
2019-04-25T07:32:46.299Z,20.20
2019-04-25T07:33:56.190Z,20.30
2019-04-25T07:34:59.322Z,20.30
2019-04-25T07:36:04.125Z,20.30
2019-04-25T07:37:06.955Z,20.40
2019-04-25T07:38:09.605Z,20.40
2019-04-25T07:39:13.442Z,20.40
2019-04-25T07:40:18.317Z,20.40
2019-04-25T07:41:21.188Z,20.40
2019-04-25T07:42:24.010Z,20.40
2019-04-25T07:43:27.676Z,20.40
2019-04-25T07:44:45.586Z,20.40
2019-04-25T07:45:36.168Z,20.40
2019-04-25T07:46:39.922Z,20.50
2019-04-25T07:47:44.168Z,20.50
2019-04-25T07:48:47.497Z,20.50
2019-04-25T07:49:50.183Z,20.50
2019-04-25T07:50:53.697Z,20.60
2019-04-25T07:51:57.125Z,20.60
2019-04-25T07:52:59.868Z,20.60
2019-04-25T07:54:04.441Z,20.60
2019-04-25T07:55:07.547Z,20.70
2019-04-25T07:56:10.413Z,20.70
2019-04-25T07:57:13.660Z,20.80
2019-04-25T07:58:16.363Z,20.80
2019-04-25T07:59:20.237Z,20.80
2019-04-25T08:00:24.018Z,20.80
2019-04-25T08:01:26.887Z,20.90
2019-04-25T08:02:30.847Z,20.90
2019-04-25T08:03:34.430Z,20.90
2019-04-25T08:04:38.404Z,21.00
2019-04-25T08:05:41.281Z,21.00
2019-04-25T08:06:46.966Z,21.00
2019-04-25T08:07:49.874Z,21.00
2019-04-25T08:08:54.433Z,21.00
2019-04-25T08:09:57.095Z,21.00
2019-04-25T08:11:04.123Z,21.00
2019-04-25T08:12:06.905Z,21.00
2019-04-25T08:13:09.806Z,21.00
2019-04-25T08:14:20.189Z,21.10
2019-04-25T08:15:43.691Z,21.10
2019-04-25T08:16:49.082Z,21.10
2019-04-25T08:18:04.058Z,21.10
2019-04-25T08:19:07.022Z,21.10
2019-04-25T08:20:10.095Z,21.20
2019-04-25T08:21:12.923Z,21.20
2019-04-25T08:22:15.785Z,21.20
2019-04-25T08:23:20.540Z,21.30
2019-04-25T08:24:24.256Z,21.30
2019-04-25T08:25:27.120Z,21.30
2019-04-25T08:26:29.818Z,21.30
2019-04-25T08:27:34.322Z,21.30
2019-04-25T08:28:49.966Z,21.40
2019-04-25T08:29:41.897Z,21.40
2019-04-25T08:30:44.714Z,21.40
2019-04-25T08:31:47.527Z,21.40
2019-04-25T08:32:50.376Z,21.40
2019-04-25T08:33:54.242Z,21.50
2019-04-25T08:34:56.946Z,21.50
2019-04-25T08:36:06.680Z,21.60
2019-04-25T08:37:17.095Z,21.60
2019-04-25T08:38:09.693Z,21.60
2019-04-25T08:39:14.566Z,21.60
2019-04-25T08:40:18.274Z,21.60
2019-04-25T08:41:21.703Z,21.70
2019-04-25T08:42:24.906Z,21.70
2019-04-25T08:43:27.739Z,21.80
2019-04-25T08:44:31.557Z,21.80
2019-04-25T08:45:35.804Z,21.80
2019-04-25T08:46:39.558Z,21.80
2019-04-25T08:47:43.814Z,21.90
2019-04-25T08:49:21.045Z,21.90
2019-04-25T08:50:39.466Z,22.00
2019-04-25T08:51:40.445Z,22.00
2019-04-25T08:52:44.324Z,22.00
2019-04-25T08:53:54.380Z,22.10
2019-04-25T08:55:01.777Z,22.10
2019-04-25T08:56:10.745Z,22.10
2019-04-25T08:57:28.477Z,22.10
2019-04-25T08:59:01.540Z,22.10
2019-04-25T09:00:02.173Z,22.20
2019-04-25T09:01:27.294Z,22.20
2019-04-25T09:02:48.793Z,22.20
2019-04-25T09:03:55.975Z,22.20
2019-04-25T09:05:16.320Z,22.20
2019-04-25T09:06:19.243Z,22.30
2019-04-25T09:07:23.532Z,22.30
2019-04-25T09:08:27.055Z,22.40
2019-04-25T09:09:29.737Z,22.40
2019-04-25T09:10:35.791Z,22.40
2019-04-25T09:11:38.899Z,22.50
2019-04-25T09:12:43.940Z,22.50
2019-04-25T09:13:47.117Z,22.50
2019-04-25T09:14:49.861Z,22.60
2019-04-25T09:15:53.972Z,22.60
2019-04-25T09:16:56.890Z,22.60
2019-04-25T09:17:59.574Z,22.70
2019-04-25T09:19:03.043Z,22.70
2019-04-25T09:20:07.437Z,22.80
2019-04-25T09:21:10.220Z,22.80
2019-04-25T09:22:13.425Z,22.90
2019-04-25T09:23:16.229Z,22.90
2019-04-25T09:24:19.204Z,22.90
2019-04-25T09:25:23.843Z,23.00
2019-04-25T09:26:27.254Z,23.00
2019-04-25T09:27:29.920Z,23.00
2019-04-25T09:28:35.048Z,23.10
2019-04-25T09:29:37.211Z,23.10
2019-04-25T09:30:40.211Z,23.20
2019-04-25T09:31:44.818Z,23.20
2019-04-25T09:32:47.861Z,23.20
2019-04-25T09:33:54.074Z,23.30
2019-04-25T09:34:59.748Z,23.30
2019-04-25T09:36:02.615Z,23.40
2019-04-25T09:37:08.113Z,23.40
2019-04-25T09:38:10.986Z,23.50
2019-04-25T09:39:23.694Z,23.50
2019-04-25T09:40:26.497Z,23.50
2019-04-25T09:41:29.402Z,23.50
2019-04-25T09:42:33.750Z,23.50
2019-04-25T09:43:37.308Z,23.50
2019-04-25T09:44:53.714Z,23.50
2019-04-25T09:46:03.689Z,23.50
2019-04-25T09:47:06.918Z,23.50
2019-04-25T09:48:19.261Z,23.50
2019-04-25T09:49:26.483Z,23.50
2019-04-25T09:50:54.986Z,23.50
2019-04-25T09:52:06.332Z,23.60
2019-04-25T09:53:21.140Z,23.60
2019-04-25T09:54:46.362Z,23.60
2019-04-25T09:56:06.473Z,23.70
2019-04-25T09:57:28.411Z,23.70
2019-04-25T09:58:49.516Z,23.80
2019-04-25T09:59:53.299Z,23.80
2019-04-25T10:01:00.665Z,23.90
2019-04-25T10:02:05.280Z,23.90
2019-04-25T10:03:08.057Z,24.00
2019-04-25T10:04:10.860Z,24.00
2019-04-25T10:05:13.972Z,24.00
2019-04-25T10:06:18.060Z,24.00
2019-04-25T10:07:21.144Z,24.10
2019-04-25T10:08:24.398Z,24.10
2019-04-25T10:09:27.729Z,24.10
2019-04-25T10:10:31.242Z,24.20
2019-04-25T10:11:38.185Z,24.20
2019-04-25T10:12:41.657Z,24.20
2019-04-25T10:13:53.465Z,24.30
2019-04-25T10:15:10.798Z,24.30
2019-04-25T10:16:13.637Z,24.30
2019-04-25T10:17:16.416Z,24.40
2019-04-25T10:18:19.243Z,24.40
2019-04-25T10:19:23.560Z,24.40
2019-04-25T10:20:26.349Z,24.50
2019-04-25T10:21:29.379Z,24.50
2019-04-25T10:22:33.836Z,24.60
2019-04-25T10:23:38.131Z,24.60
2019-04-25T10:24:41.228Z,24.70
2019-04-25T10:25:45.008Z,24.70
2019-04-25T10:26:48.154Z,24.80
2019-04-25T10:27:51.889Z,24.80
2019-04-25T10:28:54.930Z,24.80
2019-04-25T10:29:57.692Z,24.80
2019-04-25T10:31:00.413Z,24.80
2019-04-25T10:32:04.384Z,24.80
2019-04-25T10:33:07.096Z,24.80
2019-04-25T10:34:09.948Z,24.80
2019-04-25T10:35:14.663Z,24.80
2019-04-25T10:36:17.439Z,24.80
2019-04-25T10:37:20.148Z,24.80
2019-04-25T10:38:27.141Z,24.80
2019-04-25T10:39:30.661Z,24.80
2019-04-25T10:40:34.084Z,24.80
2019-04-25T10:41:36.899Z,24.80
2019-04-25T10:42:40.634Z,24.80
2019-04-25T10:43:44.043Z,24.90
2019-04-25T10:44:47.142Z,24.90
2019-04-25T10:45:50.894Z,24.90
2019-04-25T10:46:54.576Z,24.90
2019-04-25T10:47:57.644Z,24.90
2019-04-25T10:49:00.361Z,25.00
2019-04-25T10:50:04.236Z,25.00
2019-04-25T10:51:06.986Z,25.00
2019-04-25T10:52:09.830Z,25.00
2019-04-25T10:53:12.867Z,25.00
2019-04-25T10:54:15.646Z,25.00
2019-04-25T10:55:18.321Z,25.10
2019-04-25T10:56:21.081Z,25.10
2019-04-25T10:57:24.962Z,25.10
2019-04-25T10:58:28.627Z,25.00
2019-04-25T10:59:31.332Z,25.00
2019-04-25T11:00:39.809Z,25.10
2019-04-25T11:01:45.090Z,25.10
2019-04-25T11:02:48.115Z,25.10
2019-04-25T11:03:59.971Z,25.20
2019-04-25T11:05:08.493Z,25.20
2019-04-25T11:06:11.850Z,25.20
2019-04-25T11:07:14.870Z,25.20
2019-04-25T11:08:17.784Z,25.20
2019-04-25T11:09:24.365Z,25.20
2019-04-25T11:10:27.251Z,25.20
2019-04-25T11:11:34.124Z,25.20
2019-04-25T11:12:37.126Z,25.20
2019-04-25T11:13:39.877Z,25.20
2019-04-25T11:14:44.315Z,25.20
2019-04-25T11:15:47.311Z,25.20
2019-04-25T11:16:50.406Z,25.30
2019-04-25T11:17:54.830Z,25.30
2019-04-25T11:19:00.644Z,25.30
2019-04-25T11:20:05.472Z,25.30
2019-04-25T11:21:08.221Z,25.30
2019-04-25T11:22:11.051Z,25.40
2019-04-25T11:23:14.169Z,25.40
2019-04-25T11:24:17.308Z,25.40
2019-04-25T11:25:20.523Z,25.40
2019-04-25T11:26:23.997Z,25.50
2019-04-25T11:27:27.176Z,25.50
2019-04-25T11:28:30.384Z,25.50
2019-04-25T11:29:34.177Z,25.60
2019-04-25T11:30:37.353Z,25.60
2019-04-25T11:31:46.996Z,25.60
2019-04-25T11:32:50.601Z,25.70
2019-04-25T11:33:54.498Z,25.70
2019-04-25T11:34:57.637Z,25.80
2019-04-25T11:36:00.712Z,25.80
2019-04-25T11:37:05.902Z,25.80
2019-04-25T11:38:10.586Z,25.80
2019-04-25T11:39:32.736Z,25.90
2019-04-25T11:40:40.556Z,25.90
2019-04-25T11:41:45.689Z,26.00
2019-04-25T11:42:48.271Z,26.10
2019-04-25T11:43:50.984Z,26.20
2019-04-25T11:44:54.471Z,26.40
2019-04-25T11:45:58.384Z,26.50
2019-04-25T11:47:03.843Z,26.50
2019-04-25T11:48:07.261Z,26.60
2019-04-25T11:49:10.136Z,26.60
2019-04-25T11:50:14.000Z,26.70
2019-04-25T11:51:16.749Z,26.80
2019-04-25T11:52:27.488Z,26.80
2019-04-25T11:53:25.233Z,27.00
2019-04-25T11:54:27.933Z,27.00
2019-04-25T11:55:31.217Z,27.20
2019-04-25T11:56:34.281Z,27.30
2019-04-25T11:57:38.299Z,27.40
2019-04-25T11:58:40.978Z,27.60
2019-04-25T11:59:45.292Z,27.80
2019-04-25T12:00:48.866Z,27.90
2019-04-25T12:01:52.292Z,28.00
2019-04-25T12:02:56.094Z,28.00
2019-04-25T12:03:58.893Z,28.10
2019-04-25T12:05:01.553Z,28.20
2019-04-25T12:06:04.644Z,28.30
2019-04-25T12:07:08.606Z,28.50
2019-04-25T12:08:13.422Z,28.70
2019-04-25T12:09:17.682Z,28.80
2019-04-25T12:10:20.878Z,28.90
2019-04-25T12:11:23.883Z,29.00
2019-04-25T12:12:26.688Z,29.10
2019-04-25T12:13:29.442Z,29.10
2019-04-25T12:14:32.206Z,29.10
2019-04-25T12:15:34.880Z,29.10
2019-04-25T12:16:37.907Z,29.10
2019-04-25T12:17:40.610Z,29.10
2019-04-25T12:18:47.585Z,29.10
2019-04-25T12:19:49.053Z,29.10
2019-04-25T12:20:51.749Z,29.00
2019-04-25T12:21:57.908Z,29.00
2019-04-25T12:23:08.493Z,28.90
2019-04-25T12:24:05.483Z,28.90
2019-04-25T12:25:10.837Z,28.80
2019-04-25T12:26:14.300Z,28.60
2019-04-25T12:27:17.210Z,28.50
2019-04-25T12:28:19.925Z,28.40
2019-04-25T12:29:24.319Z,28.40
2019-04-25T12:30:37.432Z,28.40
2019-04-25T12:31:34.060Z,28.50
2019-04-25T12:32:37.038Z,28.50
2019-04-25T12:33:39.805Z,28.60
2019-04-25T12:34:42.437Z,28.60
2019-04-25T12:35:45.573Z,28.70
2019-04-25T12:36:48.435Z,28.70
2019-04-25T12:37:52.169Z,28.70
2019-04-25T12:38:55.641Z,28.80
2019-04-25T12:39:58.341Z,28.80
2019-04-25T12:41:01.004Z,28.80
2019-04-25T12:42:04.467Z,28.80
2019-04-25T12:43:07.213Z,28.90
2019-04-25T12:44:38.230Z,28.90
2019-04-25T12:46:06.025Z,28.90
2019-04-25T12:47:13.614Z,28.90
2019-04-25T12:48:16.553Z,28.80
2019-04-25T12:49:19.425Z,28.90
2019-04-25T12:50:23.093Z,28.90
2019-04-25T12:51:26.963Z,28.80
2019-04-25T12:52:29.724Z,28.80
2019-04-25T12:53:33.439Z,28.90
2019-04-25T12:54:37.040Z,28.90
2019-04-25T12:55:39.722Z,29.00
2019-04-25T12:56:43.317Z,29.00
2019-04-25T12:57:47.249Z,29.00
2019-04-25T12:58:51.513Z,28.90
2019-04-25T12:59:55.324Z,28.90
2019-04-25T13:00:59.993Z,28.90
2019-04-25T13:02:04.446Z,28.90
2019-04-25T13:03:07.814Z,28.90
2019-04-25T13:04:10.853Z,29.00
2019-04-25T13:05:14.212Z,28.90
2019-04-25T13:06:17.332Z,28.90
2019-04-25T13:07:20.244Z,28.90
2019-04-25T13:08:24.254Z,29.00
2019-04-25T13:09:27.107Z,29.00
2019-04-25T13:10:29.789Z,29.00
2019-04-25T13:11:33.198Z,29.00
2019-04-25T13:12:37.370Z,29.00
2019-04-25T13:13:40.070Z,29.00
2019-04-25T13:14:42.806Z,29.00
2019-04-25T13:15:46.269Z,29.00
2019-04-25T13:16:49.102Z,29.00
2019-04-25T13:17:53.485Z,28.90
2019-04-25T13:19:09.175Z,29.00
2019-04-25T13:20:01.719Z,28.90
2019-04-25T13:21:05.506Z,28.90
2019-04-25T13:22:09.352Z,28.90
2019-04-25T13:23:12.378Z,28.90
2019-04-25T13:24:15.073Z,29.00
2019-04-25T13:25:19.290Z,29.00
2019-04-25T13:26:24.905Z,29.00
2019-04-25T13:27:46.336Z,29.10
2019-04-25T13:29:09.516Z,29.00
2019-04-25T13:30:31.827Z,29.00
2019-04-25T13:31:56.037Z,29.10
2019-04-25T13:33:16.571Z,29.10
2019-04-25T13:34:45.110Z,29.10
2019-04-25T13:35:54.400Z,29.20
2019-04-25T13:36:58.147Z,29.20
2019-04-25T13:38:01.331Z,29.20
2019-04-25T13:39:08.646Z,29.20
2019-04-25T13:40:11.629Z,29.20
2019-04-25T13:41:14.753Z,29.20
2019-04-25T13:42:17.529Z,29.20
2019-04-25T13:43:20.356Z,29.20
2019-04-25T13:44:24.432Z,29.20
2019-04-25T13:45:27.214Z,29.10
2019-04-25T13:46:30.226Z,29.10
2019-04-25T13:47:33.057Z,29.20
2019-04-25T13:48:35.952Z,29.10
2019-04-25T13:49:38.709Z,29.20
2019-04-25T13:50:41.521Z,29.10
2019-04-25T13:51:44.226Z,29.10
2019-04-25T13:52:46.941Z,29.20
2019-04-25T13:53:49.616Z,29.20
2019-04-25T13:54:53.761Z,29.20
2019-04-25T13:55:56.696Z,29.20
2019-04-25T13:56:59.481Z,29.20
2019-04-25T13:58:04.265Z,29.20
2019-04-25T13:59:07.129Z,29.20
2019-04-25T14:00:10.298Z,29.20
2019-04-25T14:01:17.042Z,29.20
2019-04-25T14:02:20.296Z,29.30
2019-04-25T14:03:23.843Z,29.20